createdAt,value
2019-04-06T00:00:01.786Z,62.20
2019-04-06T00:01:01.752Z,63.20
2019-04-06T00:02:01.726Z,66.80
2019-04-06T00:03:01.695Z,67.50
2019-04-06T00:04:01.664Z,66.00
2019-04-06T00:05:01.632Z,72.30
2019-04-06T00:06:01.607Z,61.90
2019-04-06T00:07:01.578Z,68.10
2019-04-06T00:08:01.542Z,70.30
2019-04-06T00:09:01.512Z,72.30
2019-04-06T00:10:01.486Z,70.30
2019-04-06T00:11:01.496Z,70.90
2019-04-06T00:12:01.421Z,67.10
2019-04-06T00:13:01.391Z,66.50
2019-04-06T00:14:01.360Z,64.50
2019-04-06T00:15:01.329Z,66.70
2019-04-06T00:16:01.300Z,64.70
2019-04-06T00:17:01.268Z,63.30
2019-04-06T00:18:01.241Z,62.50
2019-04-06T00:19:01.207Z,70.30
2019-04-06T00:20:01.183Z,65.20
2019-04-06T00:21:01.145Z,62.50
2019-04-06T00:22:01.114Z,63.90
2019-04-06T00:23:01.086Z,61.30
2019-04-06T00:24:01.054Z,60.90
2019-04-06T00:25:01.024Z,66.00
2019-04-06T00:26:01.045Z,65.20
2019-04-06T00:27:00.968Z,68.50
2019-04-06T00:28:00.933Z,67.70
2019-04-06T00:29:00.903Z,77.40
2019-04-06T00:30:00.882Z,74.70
2019-04-06T00:31:00.842Z,63.40
2019-04-06T00:32:00.812Z,62.70
2019-04-06T00:33:00.780Z,62.60
2019-04-06T00:34:00.750Z,64.30
2019-04-06T00:35:00.721Z,60.40
2019-04-06T00:36:00.690Z,60.60
2019-04-06T00:37:00.677Z,66.60
2019-04-06T00:38:00.630Z,68.30
2019-04-06T00:39:00.598Z,64.20
2019-04-06T00:40:00.568Z,66.40
2019-04-06T00:41:00.536Z,58.30
2019-04-06T00:42:00.576Z,59.80
2019-04-06T00:43:00.477Z,58.50
2019-04-06T00:44:00.445Z,56.90
2019-04-06T00:45:00.414Z,56.60
2019-04-06T00:46:00.385Z,61.70
2019-04-06T00:47:00.354Z,59.50
2019-04-06T00:48:00.324Z,57.30
2019-04-06T00:49:00.292Z,56.80
2019-04-06T00:50:00.264Z,59.90
2019-04-06T00:51:00.232Z,59.40
2019-04-06T00:52:00.214Z,59.80
2019-04-06T00:53:00.170Z,57.70
2019-04-06T00:54:00.139Z,62.70
2019-04-06T00:55:00.111Z,60.40
2019-04-06T00:56:00.078Z,61.60
2019-04-06T00:57:00.048Z,59.40
2019-04-06T00:58:00.111Z,55.00
2019-04-06T00:58:59.985Z,53.20
2019-04-06T00:59:59.954Z,60.40
2019-04-06T01:00:59.924Z,66.60
2019-04-06T01:01:59.927Z,61.70
2019-04-06T01:02:59.863Z,62.40
2019-04-06T01:03:59.832Z,62.20
2019-04-06T01:04:59.804Z,56.90
2019-04-06T01:05:59.771Z,57.10
2019-04-06T01:06:59.743Z,57.30
2019-04-06T01:07:59.710Z,58.10
2019-04-06T01:08:59.678Z,56.80
2019-04-06T01:09:59.648Z,55.40
2019-04-06T01:10:59.619Z,56.40
2019-04-06T01:11:59.587Z,56.20
2019-04-06T01:12:59.554Z,56.30
2019-04-06T01:13:59.582Z,58.20
2019-04-06T01:14:59.493Z,57.00
2019-04-06T01:15:59.463Z,56.60
2019-04-06T01:16:59.432Z,56.30
2019-04-06T01:17:59.401Z,54.80
2019-04-06T01:18:59.369Z,56.40
2019-04-06T01:19:59.341Z,56.30
2019-04-06T01:20:59.308Z,52.90
2019-04-06T01:21:59.277Z,52.60
2019-04-06T01:22:59.246Z,56.60
2019-04-06T01:23:59.218Z,57.20
2019-04-06T01:24:59.184Z,58.90
2019-04-06T01:26:07.174Z,62.10
2019-04-06T01:26:59.123Z,59.90
2019-04-06T01:27:59.094Z,56.70
2019-04-06T01:28:59.059Z,55.10
2019-04-06T01:29:59.030Z,56.40
2019-04-06T01:30:59.001Z,56.50
2019-04-06T01:31:58.972Z,60.40
2019-04-06T01:32:58.936Z,59.60
2019-04-06T01:33:59.389Z,59.90
2019-04-06T01:34:58.876Z,60.60
2019-04-06T01:35:58.940Z,60.50
2019-04-06T01:36:58.813Z,58.10
2019-04-06T01:37:58.783Z,56.00
2019-04-06T01:38:58.751Z,57.50
2019-04-06T01:39:58.722Z,55.50
2019-04-06T01:40:58.689Z,57.00
2019-04-06T01:41:58.657Z,57.00
2019-04-06T01:42:58.628Z,53.90
2019-04-06T01:43:58.598Z,57.20
2019-04-06T01:44:58.566Z,55.20
2019-04-06T01:45:58.536Z,56.20
2019-04-06T01:46:58.505Z,57.80
2019-04-06T01:47:58.472Z,60.60
2019-04-06T01:48:58.461Z,58.10
2019-04-06T01:49:58.412Z,57.10
2019-04-06T01:50:58.379Z,57.60
2019-04-06T01:51:58.349Z,60.20
2019-04-06T01:52:58.317Z,58.40
2019-04-06T01:53:58.287Z,56.40
2019-04-06T01:54:59.206Z,58.00
2019-04-06T01:55:58.225Z,64.40
2019-04-06T01:56:58.192Z,66.70
2019-04-06T01:57:58.162Z,61.40
2019-04-06T01:58:58.132Z,64.80
2019-04-06T01:59:58.101Z,62.70
2019-04-06T02:00:58.138Z,62.90
2019-04-06T02:01:58.044Z,64.90
2019-04-06T02:02:58.007Z,68.20
2019-04-06T02:03:58.069Z,62.30
2019-04-06T02:04:57.946Z,63.90
2019-04-06T02:05:57.955Z,67.00
2019-04-06T02:06:57.881Z,65.10
2019-04-06T02:07:57.855Z,65.70
2019-04-06T02:08:57.821Z,67.50
2019-04-06T02:09:57.790Z,64.80
2019-04-06T02:10:57.759Z,61.90
2019-04-06T02:11:57.728Z,61.60
2019-04-06T02:12:57.698Z,62.10
2019-04-06T02:13:57.667Z,62.90
2019-04-06T02:14:57.636Z,60.70
2019-04-06T02:15:57.606Z,61.20
2019-04-06T02:16:57.659Z,64.70
2019-04-06T02:17:57.542Z,64.70
2019-04-06T02:18:57.525Z,63.40
2019-04-06T02:19:57.479Z,64.30
2019-04-06T02:20:57.447Z,59.40
2019-04-06T02:21:57.422Z,61.80
2019-04-06T02:22:57.386Z,59.90
2019-04-06T02:23:57.358Z,65.60
2019-04-06T02:24:57.331Z,65.00
2019-04-06T02:25:57.293Z,63.80
2019-04-06T02:26:57.364Z,62.50
2019-04-06T02:27:57.231Z,63.30
2019-04-06T02:28:57.201Z,61.70
2019-04-06T02:29:57.169Z,61.00
2019-04-06T02:30:57.138Z,61.20
2019-04-06T02:31:57.110Z,63.60
2019-04-06T02:32:57.075Z,66.00
2019-04-06T02:33:57.097Z,63.60
2019-04-06T02:34:57.013Z,61.20
2019-04-06T02:35:56.989Z,61.30
2019-04-06T02:36:56.954Z,62.50
2019-04-06T02:37:56.919Z,67.50
2019-04-06T02:38:56.887Z,65.80
2019-04-06T02:39:56.863Z,64.00
2019-04-06T02:40:56.831Z,65.00
2019-04-06T02:41:56.816Z,64.00
2019-04-06T02:42:56.768Z,64.30
2019-04-06T02:43:56.732Z,64.40
2019-04-06T02:44:56.700Z,63.50
2019-04-06T02:45:56.670Z,62.70
2019-04-06T02:46:56.638Z,61.50
2019-04-06T02:47:56.619Z,61.80
2019-04-06T02:48:56.576Z,65.80
2019-04-06T02:49:56.722Z,66.40
2019-04-06T02:50:56.514Z,68.50
2019-04-06T02:51:56.483Z,66.20
2019-04-06T02:52:56.450Z,65.10
2019-04-06T02:53:56.510Z,64.20
2019-04-06T02:54:56.399Z,65.90
2019-04-06T02:55:56.358Z,62.20
2019-04-06T02:56:56.324Z,65.50
2019-04-06T02:57:56.309Z,62.00
2019-04-06T02:58:56.263Z,63.20
2019-04-06T02:59:56.231Z,64.60
2019-04-06T03:00:56.398Z,61.80
2019-04-06T03:01:56.194Z,64.90
2019-04-06T03:02:56.137Z,60.30
2019-04-06T03:03:56.105Z,59.50
2019-04-06T03:04:56.074Z,59.30
2019-04-06T03:05:56.045Z,63.40
2019-04-06T03:06:56.011Z,64.20
2019-04-06T03:07:55.984Z,64.10
2019-04-06T03:08:55.950Z,59.70
2019-04-06T03:09:55.917Z,62.70
2019-04-06T03:10:55.886Z,61.40
2019-04-06T03:11:55.858Z,63.50
2019-04-06T03:12:55.822Z,65.50
2019-04-06T03:13:55.795Z,64.50
2019-04-06T03:14:55.960Z,62.80
2019-04-06T03:15:55.746Z,64.40
2019-04-06T03:16:55.698Z,63.30
2019-04-06T03:17:55.667Z,63.00
2019-04-06T03:18:55.636Z,63.80
2019-04-06T03:19:55.610Z,64.00
2019-04-06T03:20:55.574Z,61.00
2019-04-06T03:21:55.611Z,57.20
2019-04-06T03:22:55.512Z,57.80
2019-04-06T03:23:55.483Z,60.90
2019-04-06T03:24:55.575Z,61.50
2019-04-06T03:25:55.423Z,61.40
2019-04-06T03:27:01.788Z,63.80
2019-04-06T03:27:55.354Z,62.00
2019-04-06T03:28:55.337Z,58.40
2019-04-06T03:29:58.255Z,58.10
2019-04-06T03:30:55.500Z,63.30
2019-04-06T03:31:55.301Z,66.10
2019-04-06T03:32:55.195Z,65.90
2019-04-06T03:33:55.260Z,61.90
2019-04-06T03:34:55.130Z,65.80
2019-04-06T03:35:55.101Z,69.70
2019-04-06T03:36:55.092Z,67.70
2019-04-06T03:37:55.041Z,67.30
2019-04-06T03:38:55.022Z,67.00
2019-04-06T03:39:54.975Z,66.70
2019-04-06T03:40:54.943Z,67.30
2019-04-06T03:41:54.912Z,64.20
2019-04-06T03:42:54.880Z,60.00
2019-04-06T03:43:54.850Z,65.10
2019-04-06T03:44:54.815Z,67.00
2019-04-06T03:45:54.785Z,75.50
2019-04-06T03:46:54.754Z,64.80
2019-04-06T03:47:54.773Z,61.30
2019-04-06T03:48:54.699Z,61.00
2019-04-06T03:49:54.658Z,58.40
2019-04-06T03:50:54.631Z,61.10
2019-04-06T03:51:54.600Z,62.70
2019-04-06T03:52:54.750Z,65.70
2019-04-06T03:53:54.534Z,64.10
2019-04-06T03:54:54.502Z,62.60
2019-04-06T03:55:54.470Z,65.60
2019-04-06T03:56:54.438Z,60.80
2019-04-06T03:57:54.415Z,62.60
2019-04-06T03:58:54.377Z,59.20
2019-04-06T03:59:54.347Z,63.30
2019-04-06T04:00:54.471Z,60.10
2019-04-06T04:01:54.280Z,64.90
2019-04-06T04:02:54.248Z,62.30
2019-04-06T04:03:54.590Z,60.80
2019-04-06T04:04:54.186Z,62.80
2019-04-06T04:05:54.154Z,60.90
2019-04-06T04:06:54.124Z,64.40
2019-04-06T04:07:54.094Z,63.60
2019-04-06T04:08:54.060Z,62.00
2019-04-06T04:09:54.035Z,60.50
2019-04-06T04:10:54.017Z,62.80
2019-04-06T04:11:53.972Z,67.70
2019-04-06T04:12:53.941Z,63.20
2019-04-06T04:13:53.904Z,69.50
2019-04-06T04:14:53.891Z,61.60
2019-04-06T04:15:56.757Z,59.90
2019-04-06T04:16:54.050Z,59.60
2019-04-06T04:17:53.777Z,61.10
2019-04-06T04:18:53.742Z,60.10
2019-04-06T04:19:53.713Z,60.90
2019-04-06T04:20:53.680Z,58.50
2019-04-06T04:21:53.722Z,62.40
2019-04-06T04:22:53.618Z,66.30
2019-04-06T04:23:53.591Z,66.80
2019-04-06T04:24:53.691Z,69.80
2019-04-06T04:25:53.521Z,74.40
2019-04-06T04:26:53.492Z,68.90
2019-04-06T04:27:53.458Z,66.50
2019-04-06T04:28:53.675Z,64.30
2019-04-06T04:29:53.514Z,67.50
2019-04-06T04:30:53.383Z,70.00
2019-04-06T04:31:53.332Z,68.40
2019-04-06T04:32:53.301Z,71.20
2019-04-06T04:33:53.271Z,62.90
2019-04-06T04:34:53.238Z,66.50
2019-04-06T04:35:53.214Z,65.60
2019-04-06T04:36:53.304Z,65.80
2019-04-06T04:37:53.143Z,64.20
2019-04-06T04:38:53.112Z,68.60
2019-04-06T04:39:53.363Z,67.60
2019-04-06T04:40:53.294Z,72.50
2019-04-06T04:41:53.018Z,68.80
2019-04-06T04:42:52.988Z,69.50
2019-04-06T04:43:52.955Z,65.20
2019-04-06T04:44:52.926Z,68.80
2019-04-06T04:45:52.890Z,63.90
2019-04-06T04:46:52.869Z,67.70
2019-04-06T04:47:52.827Z,64.30
2019-04-06T04:48:52.806Z,62.20
2019-04-06T04:49:52.764Z,61.30
2019-04-06T04:50:52.731Z,58.20
2019-04-06T04:51:52.702Z,66.00
2019-04-06T04:52:52.667Z,64.50
2019-04-06T04:53:52.759Z,65.20
2019-04-06T04:54:52.607Z,69.40
2019-04-06T04:55:52.575Z,61.20
2019-04-06T04:56:52.727Z,60.80
2019-04-06T04:57:52.510Z,65.10
2019-04-06T04:58:52.482Z,64.60
2019-04-06T04:59:52.450Z,68.40
2019-04-06T05:00:52.416Z,60.60
2019-04-06T05:01:52.742Z,60.10
2019-04-06T05:02:52.354Z,67.30
2019-04-06T05:03:52.325Z,69.80
2019-04-06T05:04:52.293Z,67.60
2019-04-06T05:05:52.259Z,67.80
2019-04-06T05:06:52.230Z,61.40
2019-04-06T05:07:52.198Z,60.10
2019-04-06T05:08:52.167Z,63.70
2019-04-06T05:09:52.283Z,62.70
2019-04-06T05:10:52.107Z,63.60
2019-04-06T05:11:52.079Z,59.70
2019-04-06T05:12:52.194Z,58.30
2019-04-06T05:13:52.012Z,64.00
2019-04-06T05:14:52.113Z,59.60
2019-04-06T05:15:51.951Z,61.10
2019-04-06T05:16:51.926Z,63.30
2019-04-06T05:17:51.895Z,63.40
2019-04-06T05:18:51.858Z,63.20
2019-04-06T05:19:51.828Z,61.80
2019-04-06T05:20:51.797Z,61.50
2019-04-06T05:21:51.766Z,61.70
2019-04-06T05:22:51.737Z,63.40
2019-04-06T05:23:51.847Z,61.10
2019-04-06T05:24:51.817Z,61.20
2019-04-06T05:25:51.650Z,63.40
2019-04-06T05:26:51.660Z,60.10
2019-04-06T05:27:52.969Z,62.50
2019-04-06T05:28:51.557Z,65.40
2019-04-06T05:29:51.524Z,60.60
2019-04-06T05:30:51.496Z,60.70
2019-04-06T05:31:51.462Z,64.80
2019-04-06T05:32:51.549Z,62.20
2019-04-06T05:33:51.456Z,62.00
2019-04-06T05:34:51.373Z,62.20
2019-04-06T05:35:51.345Z,61.90
2019-04-06T05:36:51.439Z,61.90
2019-04-06T05:37:51.283Z,59.50
2019-04-06T05:38:51.256Z,58.80
2019-04-06T05:39:51.227Z,63.10
2019-04-06T05:40:51.195Z,64.20
2019-04-06T05:41:51.219Z,65.80
2019-04-06T05:42:51.135Z,64.50
2019-04-06T05:43:51.111Z,67.90
2019-04-06T05:44:51.077Z,65.80
2019-04-06T05:45:51.048Z,66.60
2019-04-06T05:46:51.020Z,64.20
2019-04-06T05:47:50.989Z,64.50
2019-04-06T05:48:50.960Z,66.00
2019-04-06T05:49:50.932Z,66.10
2019-04-06T05:50:50.903Z,65.10
2019-04-06T05:51:50.880Z,64.80
2019-04-06T05:52:50.845Z,68.60
2019-04-06T05:53:50.951Z,68.00
2019-04-06T05:54:50.911Z,67.70
2019-04-06T05:55:50.759Z,66.40
2019-04-06T05:56:50.730Z,64.40
2019-04-06T05:58:01.965Z,59.90
2019-04-06T05:58:50.841Z,59.20
2019-04-06T05:59:50.650Z,59.80
2019-04-06T06:00:50.617Z,59.80
2019-04-06T06:01:50.591Z,56.90
2019-04-06T06:02:50.703Z,58.50
2019-04-06T06:03:50.538Z,60.90
2019-04-06T06:04:50.668Z,58.80
2019-04-06T06:05:50.479Z,55.90
2019-04-06T06:06:50.454Z,56.60
2019-04-06T06:07:50.423Z,55.90
2019-04-06T06:08:50.397Z,59.00
2019-04-06T06:09:50.367Z,57.10
2019-04-06T06:10:50.339Z,55.10
2019-04-06T06:11:50.352Z,55.20
2019-04-06T06:12:50.283Z,56.60
2019-04-06T06:13:50.259Z,53.20
2019-04-06T06:14:50.234Z,54.80
2019-04-06T06:15:50.204Z,54.30
2019-04-06T06:16:50.202Z,56.30
2019-04-06T06:17:50.151Z,56.40
2019-04-06T06:18:50.123Z,58.30
2019-04-06T06:19:50.098Z,58.00
2019-04-06T06:20:50.070Z,58.10
2019-04-06T06:21:50.043Z,58.30
2019-04-06T06:22:50.088Z,60.60
2019-04-06T06:23:49.991Z,58.50
2019-04-06T06:24:49.964Z,55.80
2019-04-06T06:25:49.939Z,56.30
2019-04-06T06:26:49.914Z,57.00
2019-04-06T06:27:49.891Z,54.70
2019-04-06T06:28:49.861Z,54.60
2019-04-06T06:29:49.871Z,56.80
2019-04-06T06:30:49.809Z,58.90
2019-04-06T06:31:49.784Z,56.30
2019-04-06T06:32:49.757Z,57.20
2019-04-06T06:33:49.931Z,54.30
2019-04-06T06:34:49.705Z,56.10
2019-04-06T06:35:49.693Z,57.50
2019-04-06T06:36:49.834Z,56.90
2019-04-06T06:37:49.631Z,56.20
2019-04-06T06:38:49.606Z,55.80
2019-04-06T06:39:49.584Z,55.60
2019-04-06T06:40:49.559Z,55.20
2019-04-06T06:41:49.728Z,57.70
2019-04-06T06:42:49.508Z,57.20
2019-04-06T06:43:49.482Z,57.30
2019-04-06T06:44:49.462Z,56.90
2019-04-06T06:45:49.433Z,57.70
2019-04-06T06:46:49.408Z,58.00
2019-04-06T06:47:49.384Z,56.60
2019-04-06T06:48:49.430Z,57.20
2019-04-06T06:49:49.337Z,58.30
2019-04-06T06:50:49.313Z,55.30
2019-04-06T06:51:49.482Z,54.50
2019-04-06T06:52:49.264Z,55.80
2019-04-06T06:53:49.240Z,52.90
2019-04-06T06:54:49.219Z,51.50
2019-04-06T06:55:49.191Z,53.00
2019-04-06T06:56:49.176Z,51.30
2019-04-06T06:57:49.143Z,48.30
2019-04-06T06:58:49.162Z,50.10
2019-04-06T06:59:49.097Z,50.80
2019-04-06T07:00:49.075Z,49.20
2019-04-06T07:01:49.182Z,48.00
2019-04-06T07:02:49.027Z,49.10
2019-04-06T07:03:49.007Z,48.40
2019-04-06T07:04:48.983Z,48.90
2019-04-06T07:05:48.961Z,50.30
2019-04-06T07:06:48.939Z,49.00
2019-04-06T07:07:48.920Z,47.60
2019-04-06T07:08:49.040Z,48.30
2019-04-06T07:09:48.891Z,49.40
2019-04-06T07:10:48.856Z,47.20
2019-04-06T07:11:48.828Z,49.20
2019-04-06T07:12:48.812Z,48.00
2019-04-06T07:13:48.878Z,46.60
2019-04-06T07:14:48.768Z,46.40
2019-04-06T07:15:48.740Z,46.10
2019-04-06T07:16:48.800Z,45.00
2019-04-06T07:17:48.702Z,45.60
2019-04-06T07:18:48.675Z,45.40
2019-04-06T07:19:48.655Z,43.80
2019-04-06T07:20:48.634Z,45.70
2019-04-06T07:21:48.614Z,45.20
2019-04-06T07:22:48.733Z,47.60
2019-04-06T07:23:48.574Z,47.20
2019-04-06T07:24:48.551Z,48.10
2019-04-06T07:25:57.667Z,48.80
2019-04-06T07:26:48.512Z,48.00
2019-04-06T07:27:48.489Z,52.50
2019-04-06T07:28:48.470Z,47.10
2019-04-06T07:29:48.451Z,50.10
2019-04-06T07:30:48.432Z,59.80
2019-04-06T07:31:48.411Z,48.20
2019-04-06T07:32:48.389Z,43.20
2019-04-06T07:33:48.369Z,42.70
2019-04-06T07:34:48.350Z,43.10
2019-04-06T07:35:48.330Z,44.80
2019-04-06T07:36:48.310Z,44.60
2019-04-06T07:37:48.291Z,42.60
2019-04-06T07:38:48.271Z,43.70
2019-04-06T07:39:48.253Z,42.60
2019-04-06T07:40:48.230Z,40.20
2019-04-06T07:41:48.396Z,41.70
2019-04-06T07:42:48.193Z,41.00
2019-04-06T07:43:48.216Z,45.00
2019-04-06T07:44:48.153Z,40.80
2019-04-06T07:45:48.136Z,41.20
2019-04-06T07:46:48.326Z,40.80
2019-04-06T07:47:48.099Z,41.00
2019-04-06T07:48:48.078Z,39.90
2019-04-06T07:49:48.061Z,41.60
2019-04-06T07:50:48.043Z,43.20
2019-04-06T07:51:48.076Z,42.60
2019-04-06T07:52:48.004Z,39.80
2019-04-06T07:53:48.191Z,40.30
2019-04-06T07:54:47.968Z,40.60
2019-04-06T07:55:47.950Z,38.70
2019-04-06T07:56:47.932Z,44.40
2019-04-06T07:57:47.913Z,38.40
2019-04-06T07:58:49.963Z,38.20
2019-04-06T07:59:47.915Z,37.50
2019-04-06T08:00:48.165Z,35.80
2019-04-06T08:01:48.712Z,41.40
2019-04-06T08:02:47.824Z,36.10
2019-04-06T08:03:48.052Z,33.80
2019-04-06T08:04:47.789Z,35.50
2019-04-06T08:05:47.898Z,36.20
2019-04-06T08:06:47.752Z,36.70
2019-04-06T08:07:47.735Z,39.60
2019-04-06T08:08:47.834Z,38.70
2019-04-06T08:09:47.698Z,38.20
2019-04-06T08:10:47.678Z,36.40
2019-04-06T08:11:47.803Z,38.40
2019-04-06T08:12:47.652Z,38.90
2019-04-06T08:13:47.621Z,37.30
2019-04-06T08:14:47.603Z,35.00
2019-04-06T08:15:47.582Z,35.80
2019-04-06T08:16:47.642Z,36.80
2019-04-06T08:17:47.543Z,37.10
2019-04-06T08:18:47.736Z,35.10
2019-04-06T08:19:47.504Z,36.40
2019-04-06T08:20:47.484Z,35.20
2019-04-06T08:21:47.731Z,34.70
2019-04-06T08:22:47.448Z,35.00
2019-04-06T08:23:47.429Z,34.90
2019-04-06T08:24:47.409Z,35.90
2019-04-06T08:25:47.447Z,34.10
2019-04-06T08:26:47.372Z,33.50
2019-04-06T08:27:47.355Z,34.60
2019-04-06T08:28:59.146Z,38.00
2019-04-06T08:29:47.319Z,38.80
2019-04-06T08:30:47.303Z,34.70
2019-04-06T08:31:47.289Z,34.90
2019-04-06T08:32:47.549Z,37.40
2019-04-06T08:33:47.253Z,35.20
2019-04-06T08:34:47.234Z,34.00
2019-04-06T08:35:47.217Z,34.70
2019-04-06T08:36:47.200Z,36.60
2019-04-06T08:37:47.282Z,33.00
2019-04-06T08:38:47.173Z,33.70
2019-04-06T08:39:47.184Z,34.00
2019-04-06T08:40:47.133Z,34.80
2019-04-06T08:41:47.115Z,35.70
2019-04-06T08:42:47.105Z,34.10
2019-04-06T08:43:47.084Z,42.10
2019-04-06T08:44:47.066Z,35.70
2019-04-06T08:45:47.108Z,34.10
2019-04-06T08:46:47.036Z,32.90
2019-04-06T08:47:47.061Z,33.00
2019-04-06T08:48:47.004Z,34.00
2019-04-06T08:49:46.994Z,35.70
2019-04-06T08:50:46.971Z,36.00
2019-04-06T08:51:46.954Z,33.40
2019-04-06T08:52:46.936Z,32.40
2019-04-06T08:53:46.920Z,34.60
2019-04-06T08:54:46.904Z,33.30
2019-04-06T08:55:46.890Z,34.20
2019-04-06T08:56:46.871Z,32.00
2019-04-06T08:57:46.857Z,34.70
2019-04-06T08:58:46.863Z,34.30
2019-04-06T08:59:46.949Z,32.60
2019-04-06T09:00:46.817Z,32.60
2019-04-06T09:01:46.789Z,33.60
2019-04-06T09:02:46.776Z,37.70
2019-04-06T09:03:46.795Z,42.60
2019-04-06T09:04:46.749Z,36.20
2019-04-06T09:05:46.858Z,35.50
2019-04-06T09:06:46.712Z,37.10
2019-04-06T09:07:46.937Z,37.60
2019-04-06T09:08:46.679Z,35.40
2019-04-06T09:09:46.663Z,41.20
2019-04-06T09:10:46.648Z,33.30
2019-04-06T09:11:46.631Z,31.80
2019-04-06T09:12:46.616Z,31.90
2019-04-06T09:13:46.600Z,32.60
2019-04-06T09:14:46.586Z,33.00
2019-04-06T09:15:46.569Z,30.60
2019-04-06T09:16:46.723Z,32.00
2019-04-06T09:17:46.537Z,33.60
2019-04-06T09:18:48.687Z,40.70
2019-04-06T09:19:46.556Z,107.50
2019-04-06T09:20:46.489Z,48.60
2019-04-06T09:21:46.498Z,43.00
2019-04-06T09:22:46.462Z,34.40
2019-04-06T09:23:46.448Z,31.70
2019-04-06T09:24:46.429Z,32.20
2019-04-06T09:25:46.415Z,31.00
2019-04-06T09:26:48.081Z,31.30
2019-04-06T09:27:46.429Z,32.40
2019-04-06T09:28:46.369Z,31.10
2019-04-06T09:29:46.426Z,30.60
2019-04-06T09:30:46.353Z,31.80
2019-04-06T09:31:46.324Z,30.90
2019-04-06T09:32:46.308Z,31.10
2019-04-06T09:33:46.574Z,32.40
2019-04-06T09:34:46.277Z,33.70
2019-04-06T09:35:46.261Z,34.90
2019-04-06T09:36:46.262Z,38.30
2019-04-06T09:37:46.236Z,31.80
2019-04-06T09:38:46.439Z,37.50
2019-04-06T09:39:46.200Z,41.80
2019-04-06T09:40:46.352Z,40.20
2019-04-06T09:41:46.168Z,32.80
2019-04-06T09:42:46.383Z,29.90
2019-04-06T09:43:46.138Z,31.70
2019-04-06T09:44:46.119Z,31.00
2019-04-06T09:45:46.209Z,29.70
2019-04-06T09:46:46.090Z,29.30
2019-04-06T09:47:46.074Z,29.30
2019-04-06T09:48:46.058Z,28.40
2019-04-06T09:49:46.052Z,29.10
2019-04-06T09:50:46.213Z,29.00
2019-04-06T09:51:46.014Z,28.50
2019-04-06T09:52:45.994Z,29.10
2019-04-06T09:53:46.049Z,31.20
2019-04-06T09:54:45.964Z,29.10
2019-04-06T09:55:46.134Z,26.70
2019-04-06T09:56:45.931Z,29.00
2019-04-06T09:57:45.917Z,29.30
2019-04-06T09:58:45.903Z,28.80
2019-04-06T09:59:48.219Z,28.80
2019-04-06T10:00:45.878Z,28.50
2019-04-06T10:01:46.000Z,32.10
2019-04-06T10:02:45.838Z,30.60
2019-04-06T10:03:45.823Z,29.80
2019-04-06T10:04:45.808Z,32.30
2019-04-06T10:05:45.794Z,28.60
2019-04-06T10:06:45.776Z,28.30
2019-04-06T10:07:45.763Z,27.70
2019-04-06T10:08:45.745Z,29.20
2019-04-06T10:09:45.730Z,28.30
2019-04-06T10:10:45.785Z,27.90
2019-04-06T10:11:45.720Z,27.10
2019-04-06T10:12:45.682Z,28.70
2019-04-06T10:13:45.669Z,29.40
2019-04-06T10:14:45.652Z,28.30
2019-04-06T10:15:45.770Z,29.60
2019-04-06T10:16:45.715Z,30.20
2019-04-06T10:17:45.604Z,27.80
2019-04-06T10:18:45.777Z,27.00
2019-04-06T10:19:45.574Z,27.20
2019-04-06T10:20:45.554Z,27.80
2019-04-06T10:21:45.541Z,25.40
2019-04-06T10:22:45.525Z,25.00
2019-04-06T10:23:45.509Z,25.00
2019-04-06T10:24:45.494Z,27.00
2019-04-06T10:25:45.484Z,26.50
2019-04-06T10:26:45.461Z,27.60
2019-04-06T10:27:45.706Z,29.00
2019-04-06T10:28:45.431Z,26.10
2019-04-06T10:29:48.934Z,24.60
2019-04-06T10:30:45.399Z,24.30
2019-04-06T10:31:45.384Z,25.30
2019-04-06T10:32:45.372Z,26.10
2019-04-06T10:33:45.353Z,24.00
2019-04-06T10:34:45.337Z,27.60
2019-04-06T10:35:45.322Z,29.00
2019-04-06T10:36:45.305Z,36.80
2019-04-06T10:37:45.289Z,25.20
2019-04-06T10:38:45.274Z,25.90
2019-04-06T10:39:45.260Z,23.20
2019-04-06T10:40:45.241Z,22.60
2019-04-06T10:41:45.226Z,22.80
2019-04-06T10:42:45.430Z,22.20
2019-04-06T10:43:45.195Z,22.60
2019-04-06T10:44:45.407Z,21.80
2019-04-06T10:45:45.370Z,21.50
2019-04-06T10:46:45.212Z,21.80
2019-04-06T10:47:45.139Z,21.70
2019-04-06T10:48:45.178Z,22.80
2019-04-06T10:49:45.106Z,22.60
2019-04-06T10:50:45.089Z,23.80
2019-04-06T10:51:45.073Z,24.30
2019-04-06T10:52:45.071Z,23.90
2019-04-06T10:53:45.127Z,24.10
2019-04-06T10:54:45.029Z,23.70
2019-04-06T10:55:45.017Z,23.80
2019-04-06T10:56:44.997Z,22.20
2019-04-06T10:57:44.983Z,21.40
2019-04-06T10:58:44.969Z,21.30
2019-04-06T10:59:45.110Z,21.60
2019-04-06T11:00:44.937Z,22.30
2019-04-06T11:01:45.263Z,21.70
2019-04-06T11:02:44.910Z,23.30
2019-04-06T11:03:44.896Z,21.50
2019-04-06T11:04:44.879Z,21.70
2019-04-06T11:05:44.866Z,21.30
2019-04-06T11:06:44.848Z,23.30
2019-04-06T11:07:45.089Z,23.00
2019-04-06T11:08:44.818Z,22.60
2019-04-06T11:09:44.802Z,22.00
2019-04-06T11:10:44.786Z,21.60
2019-04-06T11:11:44.769Z,23.00
2019-04-06T11:12:44.754Z,22.40
2019-04-06T11:13:44.994Z,22.30
2019-04-06T11:14:44.722Z,21.80
2019-04-06T11:15:44.710Z,22.40
2019-04-06T11:16:47.352Z,22.80
2019-04-06T11:17:44.675Z,22.10
2019-04-06T11:18:44.659Z,22.80
2019-04-06T11:19:44.695Z,22.80
2019-04-06T11:20:44.809Z,22.30
2019-04-06T11:21:44.612Z,22.90
2019-04-06T11:22:44.641Z,21.90
2019-04-06T11:23:44.579Z,24.10
2019-04-06T11:24:44.562Z,24.10
2019-04-06T11:25:44.547Z,24.80
2019-04-06T11:26:44.531Z,24.80
2019-04-06T11:27:44.515Z,23.80
2019-04-06T11:28:44.500Z,23.70
2019-04-06T11:29:44.484Z,22.30
2019-04-06T11:30:44.471Z,22.40
2019-04-06T11:31:44.833Z,22.70
2019-04-06T11:32:44.436Z,23.70
2019-04-06T11:33:44.421Z,22.60
2019-04-06T11:34:44.406Z,22.60
2019-04-06T11:35:44.443Z,22.70
2019-04-06T11:36:44.381Z,22.40
2019-04-06T11:37:44.454Z,22.20
2019-04-06T11:38:44.342Z,21.90
2019-04-06T11:39:44.327Z,23.20
2019-04-06T11:40:44.311Z,22.80
2019-04-06T11:41:44.396Z,29.60
2019-04-06T11:42:44.277Z,27.00
2019-04-06T11:43:44.264Z,22.80
2019-04-06T11:44:44.247Z,22.20
2019-04-06T11:45:44.232Z,23.00
2019-04-06T11:46:44.441Z,22.80
2019-04-06T11:47:44.433Z,20.10
2019-04-06T11:48:45.744Z,20.70
2019-04-06T11:49:44.174Z,20.00
2019-04-06T11:50:44.154Z,20.40
2019-04-06T11:51:44.137Z,21.60
2019-04-06T11:52:44.119Z,23.20
2019-04-06T11:53:44.489Z,27.20
2019-04-06T11:54:44.090Z,26.70
2019-04-06T11:55:44.949Z,29.60
2019-04-06T11:56:44.057Z,23.10
2019-04-06T11:57:44.040Z,21.50
2019-04-06T11:58:44.026Z,21.20
2019-04-06T11:59:44.011Z,21.50
2019-04-06T12:00:43.994Z,20.10
2019-04-06T12:01:43.977Z,19.80
2019-04-06T12:02:43.962Z,21.10
2019-04-06T12:03:44.103Z,23.00
2019-04-06T12:04:43.929Z,22.90
2019-04-06T12:05:43.914Z,25.30
2019-04-06T12:06:43.900Z,23.90
2019-04-06T12:07:43.885Z,21.30
2019-04-06T12:08:43.907Z,20.40
2019-04-06T12:09:43.851Z,20.30
2019-04-06T12:10:43.838Z,20.70
2019-04-06T12:11:43.951Z,19.40
2019-04-06T12:12:43.805Z,20.20
2019-04-06T12:13:43.787Z,22.10
2019-04-06T12:14:44.093Z,20.90
2019-04-06T12:15:43.758Z,24.20
2019-04-06T12:16:43.741Z,28.20
2019-04-06T12:17:43.727Z,24.00
2019-04-06T12:18:43.805Z,24.70
2019-04-06T12:19:44.012Z,21.90
2019-04-06T12:20:43.810Z,30.00
2019-04-06T12:21:43.830Z,25.80
2019-04-06T12:22:43.686Z,26.00
2019-04-06T12:23:43.725Z,22.70
2019-04-06T12:24:43.717Z,19.60
2019-04-06T12:25:43.603Z,21.30
2019-04-06T12:26:43.587Z,20.80
2019-04-06T12:27:43.570Z,23.00
2019-04-06T12:28:43.555Z,25.70
2019-04-06T12:29:43.543Z,19.70
2019-04-06T12:30:43.524Z,19.80
2019-04-06T12:31:43.509Z,25.00
2019-04-06T12:32:43.493Z,25.70
2019-04-06T12:33:43.477Z,26.00
2019-04-06T12:34:43.679Z,23.10
2019-04-06T12:35:43.446Z,19.80
2019-04-06T12:36:43.842Z,17.20
2019-04-06T12:37:43.416Z,17.30
2019-04-06T12:38:43.759Z,20.60
2019-04-06T12:39:52.748Z,19.40
2019-04-06T12:40:43.541Z,16.20
2019-04-06T12:41:43.356Z,17.40
2019-04-06T12:42:43.339Z,18.00
2019-04-06T12:43:43.322Z,16.00
2019-04-06T12:44:43.308Z,16.10
2019-04-06T12:45:43.297Z,17.50
2019-04-06T12:46:43.275Z,19.80
2019-04-06T12:47:43.384Z,18.90
2019-04-06T12:48:43.252Z,17.50
2019-04-06T12:49:43.228Z,15.80
2019-04-06T12:50:43.214Z,16.90
2019-04-06T12:51:43.198Z,16.90